createdAt,value
2024-05-09T00:03:41.820Z,17.69
2024-05-09T00:06:10.554Z,17.67
2024-05-09T00:08:38.944Z,17.65
2024-05-09T00:11:07.094Z,17.62
2024-05-09T00:13:35.165Z,17.60
2024-05-09T00:16:03.082Z,17.59
2024-05-09T00:18:31.801Z,17.56
2024-05-09T00:21:00.100Z,17.51
2024-05-09T00:23:28.611Z,17.48
2024-05-09T00:25:57.245Z,17.45
2024-05-09T00:28:25.262Z,17.44
2024-05-09T00:30:53.443Z,17.42
2024-05-09T00:33:21.575Z,17.40
2024-05-09T00:35:49.555Z,17.39
2024-05-09T00:38:17.462Z,17.36
2024-05-09T00:40:45.560Z,17.34
2024-05-09T00:43:15.446Z,17.32
2024-05-09T00:45:44.192Z,17.32
2024-05-09T00:48:17.372Z,17.31
2024-05-09T00:50:48.092Z,17.29
2024-05-09T00:53:18.623Z,17.27
2024-05-09T00:55:47.892Z,17.25
2024-05-09T00:58:20.664Z,17.24
2024-05-09T01:00:51.002Z,17.22
2024-05-09T01:03:20.392Z,17.20
2024-05-09T01:05:48.522Z,17.18
2024-05-09T01:08:16.470Z,17.15
2024-05-09T01:10:46.126Z,17.13
2024-05-09T01:13:16.082Z,17.11
2024-05-09T01:15:46.896Z,17.08
2024-05-09T01:18:15.098Z,17.06
2024-05-09T01:20:45.157Z,17.03
2024-05-09T01:23:15.864Z,17.02
2024-05-09T01:25:46.320Z,16.99
2024-05-09T01:28:14.738Z,16.96
2024-05-09T01:30:44.859Z,16.93
2024-05-09T01:33:13.518Z,16.89
2024-05-09T01:35:43.345Z,16.85
2024-05-09T01:38:11.721Z,16.81
2024-05-09T01:40:40.487Z,16.79
2024-05-09T01:43:10.118Z,16.76
2024-05-09T01:45:40.571Z,16.74
2024-05-09T01:48:09.650Z,16.72
2024-05-09T01:50:41.512Z,16.70
2024-05-09T01:53:13.604Z,16.69
2024-05-09T01:55:43.056Z,16.68
2024-05-09T01:58:11.023Z,16.67
2024-05-09T02:00:41.856Z,16.65
2024-05-09T02:03:15.811Z,16.65
2024-05-09T02:05:48.120Z,16.63
2024-05-09T02:08:22.068Z,16.62
2024-05-09T02:10:50.841Z,16.60
2024-05-09T02:13:18.951Z,16.59
2024-05-09T02:15:47.388Z,16.57
2024-05-09T02:18:15.755Z,16.54
2024-05-09T02:20:44.229Z,16.52
2024-05-09T02:23:12.770Z,16.49
2024-05-09T02:25:41.774Z,16.45
2024-05-09T02:28:09.710Z,16.42
2024-05-09T02:30:41.299Z,16.37
2024-05-09T02:33:13.137Z,16.34
2024-05-09T02:35:44.115Z,16.32
2024-05-09T02:38:13.712Z,16.28
2024-05-09T02:40:41.740Z,16.25
2024-05-09T02:43:12.672Z,16.23
2024-05-09T02:45:41.137Z,16.19
2024-05-09T02:48:13.650Z,16.13
2024-05-09T02:50:43.266Z,16.10
2024-05-09T02:53:12.129Z,16.09
2024-05-09T02:55:40.787Z,16.09
2024-05-09T02:58:09.971Z,16.08
2024-05-09T03:00:42.082Z,16.07
2024-05-09T03:03:14.371Z,16.04
2024-05-09T03:05:46.194Z,16.04
2024-05-09T03:08:15.251Z,16.03
2024-05-09T03:10:43.531Z,15.98
2024-05-09T03:13:14.641Z,15.96
2024-05-09T03:15:44.144Z,15.94
2024-05-09T03:18:12.759Z,15.91
2024-05-09T03:20:41.211Z,15.86
2024-05-09T03:23:10.343Z,15.84
2024-05-09T03:25:39.006Z,15.81
2024-05-09T03:28:07.024Z,15.79
2024-05-09T03:30:40.921Z,15.79
2024-05-09T03:33:12.548Z,15.78
2024-05-09T03:35:41.556Z,15.76
2024-05-09T03:38:09.761Z,15.76
2024-05-09T03:40:45.637Z,15.74
2024-05-09T03:43:14.243Z,15.73
2024-05-09T03:45:43.131Z,15.71
2024-05-09T03:48:11.714Z,15.69
2024-05-09T03:50:40.698Z,15.67
2024-05-09T03:53:13.937Z,15.64
2024-05-09T03:55:42.386Z,15.61
2024-05-09T03:58:10.183Z,15.58
2024-05-09T04:00:39.756Z,15.58
2024-05-09T04:03:11.296Z,15.57
2024-05-09T04:05:42.451Z,15.56
2024-05-09T04:08:11.571Z,15.54
2024-05-09T04:10:41.083Z,15.53
2024-05-09T04:13:10.075Z,15.52
2024-05-09T04:15:38.408Z,15.51
2024-05-09T04:18:07.281Z,15.49
2024-05-09T04:20:39.173Z,15.47
2024-05-09T04:23:14.347Z,15.44
2024-05-09T04:25:45.328Z,15.42
2024-05-09T04:28:14.394Z,15.40
2024-05-09T04:30:43.428Z,15.39
2024-05-09T04:33:15.084Z,15.39
2024-05-09T04:35:43.838Z,15.36
2024-05-09T04:38:14.435Z,15.33
2024-05-09T04:40:44.294Z,15.32
2024-05-09T04:43:17.616Z,15.30
2024-05-09T04:45:46.155Z,15.28
2024-05-09T04:48:14.738Z,15.25
2024-05-09T04:50:42.934Z,15.21
2024-05-09T04:53:15.874Z,15.18
2024-05-09T04:55:43.874Z,15.16
2024-05-09T04:58:11.967Z,15.14
2024-05-09T05:00:41.065Z,15.12
2024-05-09T05:03:13.864Z,15.08
2024-05-09T05:05:46.721Z,15.06
2024-05-09T05:08:16.022Z,15.04
2024-05-09T05:10:46.068Z,15.03
2024-05-09T05:13:14.905Z,15.02
2024-05-09T05:15:43.827Z,15.02
2024-05-09T05:18:12.132Z,15.01
2024-05-09T05:20:43.273Z,15.03
2024-05-09T05:23:12.694Z,15.05
2024-05-09T05:25:43.972Z,15.06
2024-05-09T05:28:12.012Z,15.07
2024-05-09T05:30:41.083Z,15.06
2024-05-09T05:33:16.376Z,15.04
2024-05-09T05:35:44.645Z,15.03
2024-05-09T05:38:13.536Z,15.02
2024-05-09T05:40:41.843Z,15.01
2024-05-09T05:43:17.327Z,15.01
2024-05-09T05:45:46.154Z,15.02
2024-05-09T05:48:14.930Z,15.05
2024-05-09T05:50:43.809Z,15.07
2024-05-09T05:53:12.103Z,15.10
2024-05-09T05:55:41.126Z,15.11
2024-05-09T05:58:11.061Z,15.16
2024-05-09T06:00:42.067Z,15.20
2024-05-09T06:03:14.421Z,15.23
2024-05-09T06:05:44.401Z,15.26
2024-05-09T06:08:13.811Z,15.30
2024-05-09T06:10:42.614Z,15.35
2024-05-09T06:13:12.473Z,15.41
2024-05-09T06:15:41.805Z,15.45
2024-05-09T06:18:11.530Z,15.48
2024-05-09T06:20:41.893Z,15.54
2024-05-09T06:23:11.928Z,15.62
2024-05-09T06:25:40.321Z,15.69
2024-05-09T06:28:08.236Z,15.75
2024-05-09T06:30:39.779Z,15.82
2024-05-09T06:33:13.425Z,15.90
2024-05-09T06:35:44.657Z,15.97
2024-05-09T06:38:13.253Z,16.06
2024-05-09T06:40:43.273Z,16.14
2024-05-09T06:43:14.530Z,16.22
2024-05-09T06:45:43.346Z,16.32
2024-05-09T06:48:11.475Z,16.42
2024-05-09T06:50:41.142Z,16.53
2024-05-09T06:53:09.486Z,16.65
2024-05-09T06:55:38.088Z,16.78
2024-05-09T06:58:07.126Z,16.92
2024-05-09T07:00:39.517Z,17.07
2024-05-09T07:03:12.021Z,17.21
2024-05-09T07:05:41.969Z,17.35
2024-05-09T07:08:10.340Z,17.48
2024-05-09T07:10:38.592Z,17.63
2024-05-09T07:13:11.326Z,17.78
2024-05-09T07:15:40.546Z,17.94
2024-05-09T07:18:10.311Z,18.10
2024-05-09T07:20:40.230Z,18.27
2024-05-09T07:23:09.650Z,18.44
2024-05-09T07:25:38.389Z,18.61
2024-05-09T07:28:11.171Z,18.77
2024-05-09T07:30:39.340Z,18.93
2024-05-09T07:33:07.468Z,19.08
2024-05-09T07:35:37.213Z,19.23
2024-05-09T07:38:05.334Z,19.38
2024-05-09T07:40:36.410Z,19.54
2024-05-09T07:43:06.752Z,19.70
2024-05-09T07:53:36.858Z,20.32
2024-05-09T07:55:56.965Z,20.50
2024-05-09T07:58:25.501Z,20.64
2024-05-09T08:00:54.374Z,20.77
2024-05-09T08:03:24.368Z,20.92
2024-05-09T08:05:53.468Z,21.07
2024-05-09T08:08:22.160Z,21.24
2024-05-09T08:10:51.072Z,21.40
2024-05-09T08:13:19.184Z,21.55
2024-05-09T08:15:47.247Z,21.71
2024-05-09T08:18:15.804Z,21.83
2024-05-09T08:20:48.148Z,21.95
2024-05-09T08:23:16.101Z,22.07
2024-05-09T08:25:44.660Z,22.22
2024-05-09T08:28:13.423Z,22.37
2024-05-09T08:30:41.917Z,22.47
2024-05-09T08:33:10.486Z,22.56
2024-05-09T08:35:38.538Z,22.72
2024-05-09T08:38:07.533Z,22.82
2024-05-09T08:40:37.547Z,22.88
2024-05-09T08:43:09.223Z,22.98
2024-05-09T08:45:43.972Z,23.09
2024-05-09T08:48:15.657Z,23.17
2024-05-09T08:50:45.418Z,23.21
2024-05-09T08:53:13.856Z,23.27
2024-05-09T08:55:43.560Z,23.35
2024-05-09T08:58:19.057Z,23.43
2024-05-09T09:00:47.973Z,23.47
2024-05-09T09:03:19.251Z,23.51
2024-05-09T09:06:07.383Z,23.55
2024-05-09T09:08:41.158Z,23.65
2024-05-09T09:11:09.009Z,23.75
2024-05-09T09:13:38.270Z,23.88
2024-05-09T09:16:06.620Z,23.91
2024-05-09T09:18:34.799Z,23.94
2024-05-09T09:21:03.307Z,23.94
2024-05-09T09:23:31.604Z,23.94
2024-05-09T09:26:00.450Z,23.97
2024-05-09T09:28:28.667Z,24.01
2024-05-09T09:31:04.524Z,24.12
2024-05-09T09:33:33.109Z,24.22
2024-05-09T09:36:07.585Z,24.25
2024-05-09T09:38:37.247Z,24.27
2024-05-09T09:41:08.689Z,24.29
2024-05-09T09:43:37.174Z,24.33
2024-05-09T09:46:08.670Z,24.40
2024-05-09T09:48:40.403Z,24.54
2024-05-09T09:51:09.377Z,24.63
2024-05-09T09:53:38.153Z,24.73
2024-05-09T09:56:10.225Z,24.77
2024-05-09T09:58:40.089Z,24.78
2024-05-09T10:01:10.217Z,24.77
2024-05-09T10:03:38.581Z,24.76
2024-05-09T10:06:09.391Z,24.87
2024-05-09T10:08:39.437Z,25.00
2024-05-09T10:11:07.370Z,25.14
2024-05-09T10:13:35.530Z,25.29
2024-05-09T10:16:11.607Z,25.42
2024-05-09T10:18:40.697Z,25.48
2024-05-09T10:21:19.655Z,25.59
2024-05-09T10:24:04.538Z,25.62
2024-05-09T10:26:33.745Z,25.69
2024-05-09T10:29:22.537Z,25.72
2024-05-09T10:31:50.852Z,25.75
2024-05-09T10:34:24.108Z,25.83
2024-05-09T10:36:55.816Z,25.99
2024-05-09T10:39:35.149Z,26.08
2024-05-09T10:42:04.596Z,26.06
2024-05-09T10:44:37.642Z,25.91
2024-05-09T10:47:05.897Z,25.87
2024-05-09T10:49:33.910Z,25.80
2024-05-09T10:52:04.401Z,25.74
2024-05-09T10:54:36.615Z,25.72
2024-05-09T10:57:05.669Z,25.70
2024-05-09T10:59:35.539Z,25.68
2024-05-09T11:02:05.094Z,25.71
2024-05-09T11:04:34.388Z,25.72
2024-05-09T11:07:08.669Z,25.80
2024-05-09T11:09:38.001Z,25.87
2024-05-09T11:12:07.280Z,25.95
2024-05-09T11:14:35.542Z,25.95
2024-05-09T11:17:05.738Z,25.98
2024-05-09T11:19:38.704Z,26.10
2024-05-09T11:22:06.862Z,26.20
2024-05-09T11:24:35.302Z,26.31
2024-05-09T11:27:05.605Z,26.27
2024-05-09T11:29:40.626Z,26.15
2024-05-09T11:32:10.193Z,26.19
2024-05-09T11:34:39.364Z,26.31
2024-05-09T11:37:08.055Z,26.36
2024-05-09T11:39:36.126Z,26.45
2024-05-09T11:42:05.723Z,26.56
2024-05-09T11:44:33.667Z,26.59
2024-05-09T11:47:03.312Z,26.63
2024-05-09T11:49:31.253Z,26.70
2024-05-09T11:51:59.231Z,26.79
2024-05-09T11:54:27.547Z,26.82
2024-05-09T11:56:55.622Z,26.75
2024-05-09T11:59:23.912Z,26.52
2024-05-09T12:01:52.070Z,26.39
2024-05-09T12:04:20.080Z,26.31
2024-05-09T12:06:48.195Z,26.24
2024-05-09T12:09:19.278Z,26.25
2024-05-09T12:11:47.304Z,26.31
2024-05-09T12:14:15.094Z,26.28
2024-05-09T12:16:43.050Z,26.31
2024-05-09T12:19:11.208Z,26.52
2024-05-09T12:21:39.191Z,26.63
2024-05-09T12:24:07.160Z,26.70
2024-05-09T12:26:35.379Z,26.61
2024-05-09T12:29:03.232Z,26.42
2024-05-09T12:31:31.230Z,26.43
2024-05-09T12:33:59.568Z,26.58
2024-05-09T12:36:27.536Z,26.54
2024-05-09T12:38:55.511Z,26.47
2024-05-09T12:41:23.518Z,26.39
2024-05-09T12:43:53.955Z,26.45
2024-05-09T12:46:22.039Z,26.50
2024-05-09T12:48:50.321Z,26.58
2024-05-09T12:51:18.392Z,26.53
2024-05-09T12:53:46.403Z,26.48
2024-05-09T12:56:14.608Z,26.48
2024-05-09T12:58:42.497Z,26.49
2024-05-09T13:01:10.557Z,26.54
2024-05-09T13:03:38.803Z,26.47
2024-05-09T13:06:07.213Z,26.43
2024-05-09T13:08:35.500Z,26.35
2024-05-09T13:11:03.903Z,26.32
2024-05-09T13:13:31.662Z,26.37
2024-05-09T13:15:59.722Z,26.32
2024-05-09T13:18:27.928Z,26.28
2024-05-09T13:20:56.080Z,26.19
2024-05-09T13:23:24.080Z,26.14
2024-05-09T13:25:52.017Z,26.13
2024-05-09T13:28:20.355Z,26.20
2024-05-09T13:30:48.239Z,26.39
2024-05-09T13:33:16.532Z,26.48
2024-05-09T13:35:49.105Z,26.46
2024-05-09T13:38:20.332Z,26.56
2024-05-09T13:40:49.402Z,26.56
2024-05-09T13:43:18.549Z,26.53
2024-05-09T13:45:47.761Z,26.52
2024-05-09T13:48:16.326Z,26.45
2024-05-09T13:50:44.460Z,26.37
2024-05-09T13:53:12.328Z,26.33
2024-05-09T13:55:40.480Z,26.33
2024-05-09T13:58:09.671Z,26.36
2024-05-09T14:00:44.900Z,26.38
2024-05-09T14:03:19.445Z,26.33
2024-05-09T14:05:51.264Z,26.27
2024-05-09T14:08:20.838Z,26.31
2024-05-09T14:10:49.782Z,26.25
2024-05-09T14:13:18.514Z,26.12
2024-05-09T14:15:47.193Z,26.01
2024-05-09T14:18:15.265Z,25.90
2024-05-09T14:20:43.520Z,25.74
2024-05-09T14:23:11.639Z,25.67
2024-05-09T14:25:42.813Z,25.69
2024-05-09T14:28:13.334Z,25.62
2024-05-09T14:30:42.957Z,25.54
2024-05-09T14:33:11.725Z,25.48
2024-05-09T14:35:40.068Z,25.40
2024-05-09T14:38:08.952Z,25.37
2024-05-09T14:40:42.281Z,25.36
2024-05-09T14:43:13.751Z,25.39
2024-05-09T14:45:43.692Z,25.43
2024-05-09T14:48:17.444Z,25.44
2024-05-09T14:50:45.592Z,25.39
2024-05-09T14:53:14.017Z,25.33
2024-05-09T14:55:43.760Z,25.24
2024-05-09T14:58:13.064Z,25.18
2024-05-09T15:00:46.847Z,25.17
2024-05-09T15:03:19.822Z,25.13
2024-05-09T15:05:48.865Z,25.11
2024-05-09T15:08:18.768Z,25.15
2024-05-09T15:10:47.325Z,25.26
2024-05-09T15:13:22.403Z,25.38
2024-05-09T15:15:50.348Z,25.50
2024-05-09T15:18:18.853Z,25.62
2024-05-09T15:20:47.588Z,25.62
2024-05-09T15:23:15.556Z,25.59
2024-05-09T15:25:43.403Z,25.54
2024-05-09T15:28:11.588Z,25.58
2024-05-09T15:30:40.738Z,25.61
2024-05-09T15:33:10.613Z,25.55
2024-05-09T15:35:38.812Z,25.52
2024-05-09T15:38:06.677Z,25.48
2024-05-09T15:40:39.581Z,25.39
2024-05-09T15:43:11.844Z,25.28
2024-05-09T15:45:41.367Z,25.20
2024-05-09T15:48:10.581Z,25.12
2024-05-09T15:50:45.454Z,24.99
2024-05-09T15:53:13.772Z,24.93
2024-05-09T15:55:42.774Z,24.84
2024-05-09T15:58:17.422Z,24.82
2024-05-09T16:00:47.155Z,24.80
2024-05-09T16:03:16.918Z,24.82
2024-05-09T16:05:52.390Z,24.82
2024-05-09T16:08:26.839Z,24.88
2024-05-09T16:10:54.965Z,24.85
2024-05-09T16:13:23.330Z,24.69
2024-05-09T16:15:58.396Z,24.60
2024-05-09T16:18:26.505Z,24.49
2024-05-09T16:20:54.389Z,24.41
2024-05-09T16:23:27.084Z,24.28
2024-05-09T16:25:56.639Z,24.15
2024-05-09T16:28:26.286Z,24.03
2024-05-09T16:31:09.295Z,23.92
2024-05-09T16:33:37.677Z,23.93
2024-05-09T16:36:07.523Z,23.85
2024-05-09T16:38:42.071Z,23.75
2024-05-09T16:41:11.262Z,23.62
2024-05-09T16:43:39.515Z,23.53
2024-05-09T16:46:07.652Z,23.53
2024-05-09T16:48:42.269Z,23.49
2024-05-09T16:51:10.053Z,23.46
2024-05-09T16:53:41.079Z,23.45
2024-05-09T16:56:09.154Z,23.41
2024-05-09T16:58:37.469Z,23.38
2024-05-09T17:01:05.580Z,23.37
2024-05-09T17:03:34.378Z,23.41
2024-05-09T17:06:02.317Z,23.44
2024-05-09T17:08:30.331Z,23.42
2024-05-09T17:10:58.466Z,23.41
2024-05-09T17:13:26.572Z,23.40
2024-05-09T17:15:54.711Z,23.37
2024-05-09T17:18:23.103Z,23.41
2024-05-09T17:20:51.237Z,23.38
2024-05-09T17:23:19.143Z,23.37
2024-05-09T17:25:47.134Z,23.38
2024-05-09T17:28:15.705Z,23.35
2024-05-09T17:30:43.957Z,23.33
2024-05-09T17:33:13.209Z,23.30
2024-05-09T17:35:42.266Z,23.26
2024-05-09T17:38:10.485Z,23.17
2024-05-09T17:40:39.335Z,23.10
2024-05-09T17:43:10.387Z,22.97
2024-05-09T17:45:40.655Z,22.88
2024-05-09T17:48:11.781Z,22.80
2024-05-09T17:50:41.717Z,22.72
2024-05-09T17:53:10.217Z,22.60
2024-05-09T17:55:39.948Z,22.47
2024-05-09T17:58:08.676Z,22.36
2024-05-09T18:00:40.107Z,22.28
2024-05-09T18:03:12.609Z,22.22
2024-05-09T18:05:44.509Z,22.16
2024-05-09T18:08:14.188Z,22.14
2024-05-09T18:10:42.493Z,22.16
2024-05-09T18:13:12.059Z,22.15
2024-05-09T18:15:41.183Z,22.15
2024-05-09T18:18:09.613Z,22.18
2024-05-09T18:20:43.589Z,22.19
2024-05-09T18:23:17.769Z,22.16
2024-05-09T18:25:47.794Z,22.09
2024-05-09T18:28:17.402Z,22.09
2024-05-09T18:30:46.434Z,22.07
2024-05-09T18:33:14.937Z,22.05
2024-05-09T18:35:44.552Z,22.03
2024-05-09T18:38:12.925Z,22.01
2024-05-09T18:40:43.005Z,21.98
2024-05-09T18:43:13.463Z,21.95
2024-05-09T18:45:42.527Z,21.93
2024-05-09T18:48:11.206Z,21.92
2024-05-09T18:50:41.068Z,21.92
2024-05-09T18:53:11.894Z,21.91
2024-05-09T18:55:41.900Z,21.92
2024-05-09T18:58:09.945Z,21.90
2024-05-09T19:00:41.274Z,21.88
2024-05-09T19:03:13.766Z,21.86
2024-05-09T19:05:45.026Z,21.86
2024-05-09T19:08:15.527Z,21.85
2024-05-09T19:10:43.811Z,21.85
2024-05-09T19:13:13.586Z,21.83
2024-05-09T19:15:43.795Z,21.81
2024-05-09T19:18:13.918Z,21.80
2024-05-09T19:20:44.087Z,21.78
2024-05-09T19:23:13.370Z,21.76
2024-05-09T19:25:41.821Z,21.71
2024-05-09T19:28:10.333Z,21.67
2024-05-09T19:30:41.535Z,21.62
2024-05-09T19:33:12.889Z,21.58
2024-05-09T19:35:43.372Z,21.57
2024-05-09T19:38:12.605Z,21.54
2024-05-09T19:40:42.382Z,21.51
2024-05-09T19:43:10.488Z,21.48
2024-05-09T19:45:38.556Z,21.47
2024-05-09T19:48:07.149Z,21.44
2024-05-09T19:50:41.965Z,21.40
2024-05-09T19:53:15.119Z,21.37
2024-05-09T19:55:43.217Z,21.37
2024-05-09T19:58:12.380Z,21.36
2024-05-09T20:00:43.347Z,21.33
2024-05-09T20:03:14.840Z,21.34
2024-05-09T20:05:46.524Z,21.32
2024-05-09T20:08:15.089Z,21.31
2024-05-09T20:10:43.620Z,21.29
2024-05-09T20:13:12.141Z,21.26
2024-05-09T20:15:40.665Z,21.24
2024-05-09T20:18:08.901Z,21.22
2024-05-09T20:20:40.907Z,21.20
2024-05-09T20:23:12.715Z,21.18
2024-05-09T20:25:42.275Z,21.17
2024-05-09T20:28:11.025Z,21.17
2024-05-09T20:30:42.592Z,21.15
2024-05-09T20:33:10.878Z,21.14
2024-05-09T20:35:39.007Z,21.12
2024-05-09T20:38:07.331Z,21.10
2024-05-09T20:40:38.366Z,21.09
2024-05-09T20:43:08.418Z,21.07
2024-05-09T20:45:37.384Z,21.06
2024-05-09T20:48:06.361Z,21.03
2024-05-09T20:50:39.370Z,21.02
2024-05-09T20:53:14.622Z,21.03
2024-05-09T20:55:44.909Z,21.03
2024-05-09T20:58:14.280Z,21.00
2024-05-09T21:00:45.580Z,20.97
2024-05-09T21:03:16.335Z,20.95
2024-05-09T21:05:46.804Z,20.93
2024-05-09T21:08:16.456Z,20.90
2024-05-09T21:10:44.631Z,20.88
2024-05-09T21:13:13.099Z,20.86
2024-05-09T21:15:41.140Z,20.82
2024-05-09T21:18:09.177Z,20.78
2024-05-09T21:20:37.790Z,20.75
2024-05-09T21:23:06.527Z,20.69
2024-05-09T21:25:34.967Z,20.66
2024-05-09T21:28:03.278Z,20.62
2024-05-09T21:30:40.402Z,20.56
2024-05-09T21:33:13.522Z,20.50
2024-05-09T21:35:44.190Z,20.46
2024-05-09T21:38:14.104Z,20.40
2024-05-09T21:40:43.721Z,20.35
2024-05-09T21:43:12.170Z,20.30
2024-05-09T21:45:40.693Z,20.28
2024-05-09T21:48:09.377Z,20.26
2024-05-09T21:50:41.320Z,20.24
2024-05-09T21:53:13.194Z,20.22
2024-05-09T21:55:42.774Z,20.18
2024-05-09T21:58:13.293Z,20.16
2024-05-09T22:00:43.044Z,20.16
2024-05-09T22:03:12.222Z,20.12
2024-05-09T22:05:40.715Z,20.10
2024-05-09T22:08:08.749Z,20.09
2024-05-09T22:10:37.272Z,20.08
2024-05-09T22:13:07.056Z,20.07
2024-05-09T22:15:38.609Z,20.05
2024-05-09T22:18:09.715Z,20.03
2024-05-09T22:20:40.004Z,20.02
2024-05-09T22:23:09.024Z,19.99
2024-05-09T22:25:37.850Z,19.97
2024-05-09T22:28:06.639Z,19.94
2024-05-09T22:30:38.462Z,19.92
2024-05-09T22:33:10.992Z,19.90
2024-05-09T22:35:41.153Z,19.87
2024-05-09T22:38:09.417Z,19.86
2024-05-09T22:40:46.109Z,19.84
2024-05-09T22:43:22.323Z,19.79
2024-05-09T22:45:55.551Z,19.76
2024-05-09T22:48:25.462Z,19.74
2024-05-09T22:50:53.997Z,19.70
2024-05-09T22:53:24.101Z,19.68
2024-05-09T22:55:53.549Z,19.67
2024-05-09T22:58:22.707Z,19.68
2024-05-09T23:00:50.837Z,19.66
2024-05-09T23:03:22.134Z,19.63
2024-05-09T23:05:52.793Z,19.61
2024-05-09T23:08:20.955Z,19.60
2024-05-09T23:10:48.994Z,19.60
2024-05-09T23:13:17.403Z,19.59
2024-05-09T23:15:45.642Z,19.57
2024-05-09T23:18:14.584Z,19.54
2024-05-09T23:20:43.024Z,19.51
2024-05-09T23:23:12.097Z,19.50
2024-05-09T23:25:41.451Z,19.46
2024-05-09T23:28:12.889Z,19.47
2024-05-09T23:30:41.977Z,19.47
2024-05-09T23:33:13.152Z,19.45
2024-05-09T23:35:43.204Z,19.44
2024-05-09T23:38:11.513Z,19.42
2024-05-09T23:40:41.339Z,19.39
2024-05-09T23:43:11.892Z,19.34
2024-05-09T23:45:42.159Z,19.31
2024-05-09T23:48:11.207Z,19.29
2024-05-09T23:50:40.805Z,19.28
2024-05-09T23:53:10.898Z,19.26
2024-05-09T23:55:39.892Z,19.22
2024-05-09T23:58:09.752Z,19.20
